createdAt,value
2022-08-11T00:00:14.499Z,0.89
2022-08-11T00:01:13.314Z,0.85
2022-08-11T00:02:18.079Z,1.07
2022-08-11T00:03:12.865Z,1
2022-08-11T00:04:12.120Z,1.2
2022-08-11T00:05:12.351Z,1.2
2022-08-11T00:06:11.870Z,1.2
2022-08-11T00:07:14.408Z,0.98
2022-08-11T00:08:13.942Z,1.14
2022-08-11T00:09:15.447Z,1.14
2022-08-11T00:10:07.838Z,1.14
2022-08-11T00:11:16.056Z,1.61
2022-08-11T00:12:15.511Z,1.61
2022-08-11T00:13:18.922Z,1.23
2022-08-11T00:14:11.160Z,1.23
2022-08-11T00:15:13.428Z,0.77
2022-08-11T00:16:13.219Z,0.78
2022-08-11T00:17:13.878Z,1.04
2022-08-11T00:18:13.547Z,1.04
2022-08-11T00:19:15.232Z,0.96
2022-08-11T00:20:18.293Z,0.66
2022-08-11T00:21:08.202Z,0.66
2022-08-11T00:22:17.247Z,1.39
2022-08-11T00:23:11.081Z,0.86
2022-08-11T00:24:13.683Z,1.51
2022-08-11T00:25:08.849Z,1.05
2022-08-11T00:26:15.670Z,0.94
2022-08-11T00:27:16.530Z,0.76
2022-08-11T00:28:11.986Z,1.02
2022-08-11T00:29:13.571Z,0.89
2022-08-11T00:30:12.821Z,0.89
2022-08-11T00:31:13.895Z,1.02
2022-08-11T00:32:16.255Z,0.99
2022-08-11T00:33:13.995Z,1.19
2022-08-11T00:34:11.782Z,1.19
2022-08-11T00:35:58.981Z,0.84
2022-08-11T00:36:10.834Z,0.97
2022-08-11T00:37:12.434Z,0.97
2022-08-11T00:38:14.636Z,1.36
2022-08-11T00:39:15.231Z,0.9
2022-08-11T00:40:13.289Z,1.12
2022-08-11T00:41:15.645Z,1.06
2022-08-11T00:42:13.185Z,1.06
2022-08-11T00:43:22.778Z,0.99
2022-08-11T00:44:15.280Z,0.99
2022-08-11T00:45:14.014Z,1.04
2022-08-11T00:46:16.845Z,1.17
2022-08-11T00:47:15.477Z,1.25
2022-08-11T00:48:14.259Z,1.25
2022-08-11T00:49:14.091Z,1.35
2022-08-11T00:50:14.065Z,0.74
2022-08-11T00:51:05.984Z,0.74
2022-08-11T00:52:21.994Z,1.17
2022-08-11T00:53:15.303Z,1.74
2022-08-11T00:54:12.756Z,1.74
2022-08-11T00:55:14.812Z,1.22
2022-08-11T00:56:16.558Z,0.96
2022-08-11T00:57:39.109Z,0.73
2022-08-11T00:58:12.749Z,0.73
2022-08-11T00:59:37.377Z,0.73
2022-08-11T01:00:11.195Z,0.94
2022-08-11T01:01:19.479Z,0.85
2022-08-11T01:02:11.581Z,1.02
2022-08-11T01:03:17.720Z,1.39
2022-08-11T01:04:13.684Z,0.88
2022-08-11T01:05:13.500Z,0.88
2022-08-11T01:06:13.128Z,0.89
2022-08-11T01:07:14.592Z,1.19
2022-08-11T01:08:10.733Z,1.06
2022-08-11T01:09:24.363Z,1.06
2022-08-11T01:10:10.554Z,1.22
2022-08-11T01:11:10.481Z,1.35
2022-08-11T01:12:12.422Z,1.35
2022-08-11T01:13:16.866Z,1.26
2022-08-11T01:14:13.596Z,1.26
2022-08-11T01:15:14.725Z,1.26
2022-08-11T01:16:11.977Z,0.84
2022-08-11T01:17:16.390Z,0.84
2022-08-11T01:18:16.993Z,1.02
2022-08-11T01:19:13.450Z,1.02
2022-08-11T01:20:50.079Z,1.54
2022-08-11T01:21:13.487Z,0.9
2022-08-11T01:22:16.922Z,0.9
2022-08-11T01:23:19.563Z,1.42
2022-08-11T01:24:19.068Z,1.42
2022-08-11T01:25:19.663Z,1.42
2022-08-11T01:26:05.112Z,1.82
2022-08-11T01:27:21.739Z,1.49
2022-08-11T01:28:14.611Z,0.99
2022-08-11T01:29:13.022Z,0.99
2022-08-11T01:30:13.029Z,0.87
2022-08-11T01:31:10.540Z,1.68
2022-08-11T01:32:14.987Z,1.18
2022-08-11T01:33:13.474Z,1.18
2022-08-11T01:34:13.513Z,1.1
2022-08-11T01:35:16.736Z,1.1
2022-08-11T01:36:14.131Z,0.95
2022-08-11T01:37:11.163Z,0.97
2022-08-11T01:38:16.214Z,0.97
2022-08-11T01:39:20.430Z,1.16
2022-08-11T01:40:07.557Z,1.16
2022-08-11T01:41:17.979Z,0.86
2022-08-11T01:42:09.336Z,0.76
2022-08-11T01:43:15.493Z,0.98
2022-08-11T01:44:15.161Z,1.36
2022-08-11T01:45:16.045Z,0.72
2022-08-11T01:46:13.076Z,0.72
2022-08-11T01:47:14.577Z,0.69
2022-08-11T01:48:13.240Z,0.81
2022-08-11T01:50:11.682Z,0.81
2022-08-11T01:50:15.297Z,1.18
2022-08-11T01:51:05.245Z,1.18
2022-08-11T01:52:18.546Z,1
2022-08-11T01:53:10.381Z,0.87
2022-08-11T01:54:12.862Z,0.87
2022-08-11T01:55:14.222Z,0.9
2022-08-11T01:56:13.198Z,0.66
2022-08-11T01:57:14.561Z,0.66
2022-08-11T01:58:10.054Z,1.05
2022-08-11T01:59:18.934Z,1.05
2022-08-11T02:00:13.277Z,0.71
2022-08-11T02:01:12.999Z,0.86
2022-08-11T02:02:21.585Z,0.86
2022-08-11T02:03:17.356Z,1.08
2022-08-11T02:04:14.615Z,1.08
2022-08-11T02:05:12.329Z,1.08
2022-08-11T02:06:14.399Z,0.81
2022-08-11T02:07:16.403Z,0.81
2022-08-11T02:08:05.246Z,0.81
2022-08-11T02:09:20.945Z,0.62
2022-08-11T02:10:07.601Z,0.95
2022-08-11T02:11:16.179Z,0.95
2022-08-11T02:12:15.483Z,0.95
2022-08-11T02:13:07.259Z,0.76
2022-08-11T02:14:12.725Z,0.65
2022-08-11T02:15:09.136Z,0.95
2022-08-11T02:16:15.258Z,0.81
2022-08-11T02:17:14.255Z,0.81
2022-08-11T02:18:16.209Z,0.93
2022-08-11T02:19:13.872Z,0.93
2022-08-11T02:20:14.823Z,0.93
2022-08-11T02:21:15.727Z,1.09
2022-08-11T02:22:12.450Z,0.73
2022-08-11T02:23:13.766Z,0.78
2022-08-11T02:24:14.048Z,1.15
2022-08-11T02:25:12.953Z,1.15
2022-08-11T02:26:11.335Z,1.05
2022-08-11T02:27:15.637Z,0.89
2022-08-11T02:28:14.095Z,0.98
2022-08-11T02:29:12.316Z,0.73
2022-08-11T02:30:13.403Z,0.85
2022-08-11T02:32:29.662Z,0.85
2022-08-11T02:32:32.220Z,0.81
2022-08-11T02:33:11.047Z,0.88
2022-08-11T02:34:13.762Z,1.09
2022-08-11T02:35:15.604Z,1.12
2022-08-11T02:36:12.389Z,1.12
2022-08-11T02:37:12.477Z,0.99
2022-08-11T02:38:15.678Z,1.1
2022-08-11T02:39:13.907Z,1.1
2022-08-11T02:40:06.732Z,1.1
2022-08-11T02:41:14.224Z,1.01
2022-08-11T02:42:37.946Z,1.01
2022-08-11T02:43:11.767Z,1.09
2022-08-11T02:44:11.728Z,0.93
2022-08-11T02:45:15.358Z,0.93
2022-08-11T02:46:20.515Z,1.05
2022-08-11T02:47:14.732Z,0.92
2022-08-11T02:48:12.209Z,1.07
2022-08-11T02:49:11.837Z,0.72
2022-08-11T02:50:16.340Z,0.72
2022-08-11T02:51:14.016Z,2.01
2022-08-11T02:52:13.062Z,2.01
2022-08-11T02:53:14.950Z,1.37
2022-08-11T02:54:17.762Z,1.12
2022-08-11T02:55:56.905Z,1.21
2022-08-11T02:56:14.685Z,0.87
2022-08-11T02:57:13.934Z,0.87
2022-08-11T02:58:12.312Z,0.94
2022-08-11T02:59:17.194Z,1.15
2022-08-11T03:00:15.704Z,1.15
2022-08-11T03:01:12.996Z,0.82
2022-08-11T03:02:14.626Z,1.12
2022-08-11T03:03:16.209Z,0.89
2022-08-11T03:04:13.566Z,0.89
2022-08-11T03:05:12.521Z,0.89
2022-08-11T03:06:14.162Z,0.86
2022-08-11T03:07:31.466Z,1.04
2022-08-11T03:08:14.812Z,1.04
2022-08-11T03:09:11.909Z,1.03
2022-08-11T03:10:14.655Z,1.34
2022-08-11T03:11:13.901Z,1.34
2022-08-11T03:12:14.179Z,0.99
2022-08-11T03:13:20.119Z,0.99
2022-08-11T03:14:05.100Z,0.99
2022-08-11T03:15:19.574Z,0.84
2022-08-11T03:16:12.348Z,0.81
2022-08-11T03:17:14.150Z,0.81
2022-08-11T03:18:16.423Z,0.89
2022-08-11T03:19:14.020Z,0.89
2022-08-11T03:20:11.448Z,0.89
2022-08-11T03:21:14.330Z,1.22
2022-08-11T03:22:12.723Z,1.2
2022-08-11T03:23:21.805Z,1.2
2022-08-11T03:24:11.168Z,1.1
2022-08-11T03:25:15.276Z,1.1
2022-08-11T03:26:14.827Z,1.11
2022-08-11T03:27:16.024Z,0.86
2022-08-11T03:28:20.273Z,0.86
2022-08-11T03:29:24.828Z,0.86
2022-08-11T03:30:14.511Z,0.89
2022-08-11T03:31:17.237Z,0.95
2022-08-11T03:32:15.439Z,0.95
2022-08-11T03:33:13.389Z,0.99
2022-08-11T03:34:15.680Z,1.1
2022-08-11T03:35:23.462Z,1.19
2022-08-11T03:36:11.464Z,1.19
2022-08-11T03:37:18.792Z,1.21
2022-08-11T03:38:15.816Z,0.96
2022-08-11T03:39:12.720Z,1.01
2022-08-11T03:40:14.712Z,1.01
2022-08-11T03:42:06.842Z,0.84
2022-08-11T03:42:12.918Z,1.08
2022-08-11T03:43:21.993Z,1.09
2022-08-11T03:44:06.243Z,1.09
2022-08-11T03:45:16.154Z,1.18
2022-08-11T03:46:12.840Z,0.91
2022-08-11T03:47:15.623Z,0.91
2022-08-11T03:48:11.291Z,0.95
2022-08-11T03:49:15.074Z,0.9
2022-08-11T03:50:13.912Z,1.08
2022-08-11T03:51:12.763Z,1.08
2022-08-11T03:52:04.668Z,1.08
2022-08-11T03:53:11.544Z,1.04
2022-08-11T03:54:11.846Z,1.04
2022-08-11T03:55:16.774Z,1.18
2022-08-11T03:56:16.486Z,1.18
2022-08-11T03:57:14.040Z,1.18
2022-08-11T03:58:17.188Z,1.01
2022-08-11T03:59:14.966Z,1.27
2022-08-11T04:00:05.454Z,1.27
2022-08-11T04:01:17.175Z,1.18
2022-08-11T04:02:11.607Z,1.17
2022-08-11T04:03:20.579Z,1.23
2022-08-11T04:04:14.014Z,1.15
2022-08-11T04:05:12.960Z,1.15
2022-08-11T04:06:11.909Z,0.94
2022-08-11T04:07:19.833Z,0.92
2022-08-11T04:08:19.715Z,1.06
2022-08-11T04:09:19.610Z,1.09
2022-08-11T04:10:05.992Z,0.93
2022-08-11T04:11:15.861Z,1.25
2022-08-11T04:12:34.692Z,1.16
2022-08-11T04:13:14.871Z,0.82
2022-08-11T04:14:14.270Z,1.11
2022-08-11T04:15:16.704Z,1.11
2022-08-11T04:16:14.558Z,1.44
2022-08-11T04:17:11.613Z,1.12
2022-08-11T04:18:17.983Z,1.12
2022-08-11T04:19:14.464Z,1.03
2022-08-11T04:20:18.839Z,1.03
2022-08-11T04:21:11.432Z,0.78
2022-08-11T04:22:15.442Z,0.92
2022-08-11T04:24:37.419Z,1.12
2022-08-11T04:24:40.446Z,1.12
2022-08-11T04:25:14.990Z,1.46
2022-08-11T04:26:20.647Z,1.46
2022-08-11T04:27:16.466Z,1.15
2022-08-11T04:28:31.393Z,0.97
2022-08-11T04:29:15.726Z,1.39
2022-08-11T04:30:14.058Z,1.39
2022-08-11T04:31:54.421Z,1.1
2022-08-11T04:32:10.977Z,1.27
2022-08-11T04:33:20.279Z,1.32
2022-08-11T04:34:14.414Z,0.92
2022-08-11T04:35:18.076Z,0.92
2022-08-11T04:36:13.659Z,1.08
2022-08-11T04:37:12.655Z,1.05
2022-08-11T04:38:13.482Z,1.02
2022-08-11T04:39:16.735Z,1.02
2022-08-11T04:40:06.935Z,1.02
2022-08-11T04:41:16.951Z,1.21
2022-08-11T04:42:11.180Z,1.36
2022-08-11T04:43:11.560Z,1.12
2022-08-11T04:44:12.626Z,1.22
2022-08-11T04:45:13.169Z,1.22
2022-08-11T04:46:12.522Z,1.19
2022-08-11T04:47:12.583Z,1.21
2022-08-11T04:48:13.223Z,1.21
2022-08-11T04:49:11.975Z,1.14
2022-08-11T04:50:11.139Z,1.14
2022-08-11T04:51:19.069Z,0.95
2022-08-11T04:52:07.144Z,1.04
2022-08-11T04:53:17.206Z,1.02
2022-08-11T04:54:12.865Z,1.51
2022-08-11T04:55:19.037Z,1.51
2022-08-11T04:56:14.512Z,1.02
2022-08-11T04:57:13.784Z,1.02
2022-08-11T04:58:13.608Z,1.01
2022-08-11T04:59:11.333Z,0.99
2022-08-11T05:00:15.754Z,1.14
2022-08-11T05:01:13.718Z,1.42
2022-08-11T05:02:19.136Z,1.42
2022-08-11T05:03:11.990Z,1.81
2022-08-11T05:04:11.801Z,0.81
2022-08-11T05:05:11.709Z,0.81
2022-08-11T05:06:16.825Z,1.04
2022-08-11T05:07:05.509Z,1.3
2022-08-11T05:08:20.705Z,1.09
2022-08-11T05:09:16.936Z,1.09
2022-08-11T05:10:06.185Z,1.09
2022-08-11T05:11:18.720Z,1.25
2022-08-11T05:12:15.695Z,0.86
2022-08-11T05:13:14.572Z,0.86
2022-08-11T05:14:12.159Z,0.86
2022-08-11T05:15:15.500Z,1.12
2022-08-11T05:16:11.228Z,1.12
2022-08-11T05:17:14.954Z,1.17
2022-08-11T05:18:12.275Z,1.17
2022-08-11T05:19:19.366Z,1.66
2022-08-11T05:20:12.740Z,2.16
2022-08-11T05:21:15.422Z,1.42
2022-08-11T05:22:05.023Z,1.42
2022-08-11T05:23:07.127Z,1.14
2022-08-11T05:24:13.314Z,1.29
2022-08-11T05:25:13.797Z,1.29
2022-08-11T05:26:50.466Z,1.66
2022-08-11T05:28:13.928Z,1.43
2022-08-11T05:29:22.031Z,1.43
2022-08-11T05:30:13.198Z,1.04
2022-08-11T05:31:17.086Z,1.04
2022-08-11T05:32:13.937Z,1.29
2022-08-11T05:33:13.756Z,1.29
2022-08-11T05:34:15.851Z,1.82
2022-08-11T05:36:03.381Z,1.82
2022-08-11T05:36:05.578Z,1.82
2022-08-11T05:37:28.852Z,1.01
2022-08-11T05:38:18.737Z,0.99
2022-08-11T05:39:13.476Z,1.15
2022-08-11T05:40:13.069Z,1.15
2022-08-11T05:41:14.079Z,1.19
2022-08-11T05:42:32.229Z,1.19
2022-08-11T05:43:13.760Z,1.19
2022-08-11T05:44:24.131Z,1.16
2022-08-11T05:45:17.923Z,1.16
2022-08-11T05:46:16.056Z,1.19
2022-08-11T05:47:13.899Z,1.52
2022-08-11T05:48:11.632Z,1.7
2022-08-11T05:49:12.572Z,1.7
2022-08-11T05:50:17.323Z,1.25
2022-08-11T05:51:12.674Z,1.25
2022-08-11T05:52:18.898Z,1.24
2022-08-11T05:53:14.222Z,1.12
2022-08-11T05:54:31.149Z,1.12
2022-08-11T05:55:12.988Z,1.35
2022-08-11T05:56:13.516Z,1.35
2022-08-11T05:57:52.811Z,1.05
2022-08-11T05:58:12.718Z,1.33
2022-08-11T05:59:09.778Z,1.37
2022-08-11T06:00:16.768Z,1.52
2022-08-11T06:01:14.374Z,1.52
2022-08-11T06:02:04.905Z,1.55
2022-08-11T06:03:13.306Z,1.69
2022-08-11T06:04:15.015Z,1.69
2022-08-11T06:05:13.600Z,1.69
2022-08-11T06:06:11.834Z,1.58
2022-08-11T06:07:13.557Z,1.58
2022-08-11T06:08:12.765Z,0.94
2022-08-11T06:09:16.053Z,0.91
2022-08-11T06:10:10.807Z,0.91
2022-08-11T06:11:12.334Z,1.45
2022-08-11T06:12:17.491Z,1.18
2022-08-11T06:13:15.014Z,1.04
2022-08-11T06:14:18.753Z,1.04
2022-08-11T06:15:08.854Z,1.11
2022-08-11T06:16:15.666Z,1.11
2022-08-11T06:17:11.645Z,1.21
2022-08-11T06:18:12.716Z,1.02
2022-08-11T06:19:11.878Z,1.02
2022-08-11T06:20:14.265Z,1.02
2022-08-11T06:21:10.687Z,0.99
2022-08-11T06:22:16.751Z,1.16
2022-08-11T06:23:15.453Z,1.16
2022-08-11T06:24:04.980Z,1.16
2022-08-11T06:25:12.809Z,1.26
2022-08-11T06:26:11.647Z,1.08
2022-08-11T06:27:15.587Z,1.08
2022-08-11T06:28:17.190Z,1.35
2022-08-11T06:29:12.042Z,1.35
2022-08-11T06:30:10.394Z,0.91
2022-08-11T06:31:17.032Z,1.38
2022-08-11T06:32:15.779Z,0.76
2022-08-11T06:33:11.428Z,0.76
2022-08-11T06:34:29.162Z,1.33
2022-08-11T06:35:14.545Z,1.16
2022-08-11T06:36:13.373Z,1.15
2022-08-11T06:37:15.389Z,1.15
2022-08-11T06:38:13.317Z,1.19
2022-08-11T06:39:05.135Z,1.19
2022-08-11T06:40:13.147Z,1.16
2022-08-11T06:41:12.515Z,1.16
2022-08-11T06:42:14.069Z,1.12
2022-08-11T06:43:14.585Z,0.91
2022-08-11T06:44:14.266Z,1.24
2022-08-11T06:45:18.242Z,1.26
2022-08-11T06:46:07.755Z,1.26
2022-08-11T06:47:20.032Z,1.26
2022-08-11T06:48:12.612Z,1.65
2022-08-11T06:49:11.672Z,1.65
2022-08-11T06:50:14.664Z,0.95
2022-08-11T06:51:19.061Z,0.95
2022-08-11T06:52:37.417Z,0.62
2022-08-11T06:53:16.036Z,1.18
2022-08-11T06:54:10.491Z,1.1
2022-08-11T06:56:00.522Z,1.32
2022-08-11T06:56:16.339Z,0.89
2022-08-11T06:57:33.126Z,1.04
2022-08-11T06:58:11.318Z,1.05
2022-08-11T06:59:17.929Z,1.05
2022-08-11T07:00:14.250Z,1.65
2022-08-11T07:01:12.118Z,1.74
2022-08-11T07:02:16.036Z,1.74
2022-08-11T07:03:12.293Z,1.31
2022-08-11T07:04:16.379Z,1.31
2022-08-11T07:05:12.576Z,1.35
2022-08-11T07:06:16.256Z,1.35
2022-08-11T07:07:12.778Z,1.14
2022-08-11T07:08:37.382Z,0.9
2022-08-11T07:09:04.605Z,0.9
2022-08-11T07:10:17.525Z,1.05
2022-08-11T07:11:12.408Z,1.03
2022-08-11T07:12:14.138Z,1.03
2022-08-11T07:13:45.212Z,1.41
2022-08-11T07:14:13.353Z,1.41
2022-08-11T07:15:11.578Z,1.05
2022-08-11T07:16:14.503Z,1.05
2022-08-11T07:17:15.692Z,1.07
2022-08-11T07:18:13.920Z,1.07
2022-08-11T07:19:18.638Z,1.74
2022-08-11T07:20:12.158Z,0.71
2022-08-11T07:22:05.093Z,0.71
2022-08-11T07:22:15.224Z,1.19
2022-08-11T07:23:12.997Z,1.19
2022-08-11T07:24:13.488Z,1.19
2022-08-11T07:25:12.432Z,0.95
2022-08-11T07:26:18.068Z,0.89
2022-08-11T07:27:12.797Z,1.45
2022-08-11T07:28:21.102Z,1.45
2022-08-11T07:29:12.468Z,0.79
2022-08-11T07:30:16.169Z,0.79
2022-08-11T07:31:12.680Z,1.26
2022-08-11T07:32:15.908Z,0.74
2022-08-11T07:34:12.137Z,0.78
2022-08-11T07:34:14.580Z,0.78
2022-08-11T07:35:15.266Z,0.91
2022-08-11T07:36:11.033Z,1.15
2022-08-11T07:37:15.054Z,1.15
2022-08-11T07:38:12.275Z,0.99
2022-08-11T07:39:09.070Z,0.99
2022-08-11T07:40:13.583Z,0.94
2022-08-11T07:41:12.838Z,1.94
2022-08-11T07:42:12.357Z,1.94
2022-08-11T07:43:15.528Z,0.75
2022-08-11T07:44:06.814Z,0.75
2022-08-11T07:45:06.105Z,0.76
2022-08-11T07:46:13.687Z,1.28
2022-08-11T07:47:16.475Z,1.36
2022-08-11T07:48:16.076Z,1.36
2022-08-11T07:49:12.868Z,0.81
2022-08-11T07:50:14.187Z,0.76
2022-08-11T07:51:16.277Z,0.64
2022-08-11T07:52:13.268Z,0.74
2022-08-11T07:53:12.596Z,0.76
2022-08-11T07:54:19.623Z,0.76
2022-08-11T07:55:14.842Z,0.8
2022-08-11T07:56:19.604Z,0.8
2022-08-11T07:58:19.698Z,1.41
2022-08-11T07:58:21.373Z,1.41
2022-08-11T07:59:15.387Z,0.98
2022-08-11T08:00:12.369Z,0.98
2022-08-11T08:01:24.358Z,0.73
2022-08-11T08:02:16.608Z,0.84
2022-08-11T08:03:12.511Z,0.84
2022-08-11T08:04:12.499Z,1.22
2022-08-11T08:05:13.049Z,0.92
2022-08-11T08:06:37.646Z,0.92
2022-08-11T08:07:12.825Z,1.15
2022-08-11T08:08:14.204Z,1.15
2022-08-11T08:09:13.676Z,0.45
2022-08-11T08:10:16.192Z,0.45
2022-08-11T08:11:19.475Z,0.99
2022-08-11T08:12:14.583Z,0.59
2022-08-11T08:13:12.339Z,1.22
2022-08-11T08:14:16.753Z,1.22
2022-08-11T08:15:12.007Z,1.03
2022-08-11T08:16:15.429Z,1.03
2022-08-11T08:17:13.291Z,0.71
2022-08-11T08:18:29.782Z,0.81
2022-08-11T08:19:11.007Z,0.81
2022-08-11T08:20:11.786Z,1.26
2022-08-11T08:21:14.975Z,1.26
2022-08-11T08:22:42.859Z,0.85
2022-08-11T08:23:10.402Z,0.85
2022-08-11T08:24:14.939Z,0.92
2022-08-11T08:25:11.631Z,0.89
2022-08-11T08:26:19.079Z,0.83
2022-08-11T08:27:13.306Z,1.21
2022-08-11T08:28:14.979Z,1.21
2022-08-11T08:29:13.127Z,1.21
2022-08-11T08:30:14.305Z,0.94
2022-08-11T08:31:13.544Z,0.59
2022-08-11T08:32:11.501Z,0.59
2022-08-11T08:33:17.038Z,1.56
2022-08-11T08:34:13.250Z,0.83
2022-08-11T08:35:15.319Z,0.83
2022-08-11T08:36:05.851Z,0.83
2022-08-11T08:37:46.517Z,0.75
2022-08-11T08:38:09.609Z,0.75
2022-08-11T08:39:17.674Z,0.42
2022-08-11T08:40:11.453Z,0.96
2022-08-11T08:41:18.713Z,0.96
2022-08-11T08:42:13.298Z,0.96
2022-08-11T08:43:15.364Z,1.28
2022-08-11T08:44:41.317Z,1.28
2022-08-11T08:45:12.756Z,1.35
2022-08-11T08:46:09.027Z,0.78
2022-08-11T08:47:12.648Z,0.75
2022-08-11T08:48:12.941Z,0.75
2022-08-11T08:50:19.052Z,0.46
2022-08-11T08:51:13.143Z,0.46
2022-08-11T08:52:35.873Z,0.94
2022-08-11T08:53:14.437Z,0.54
2022-08-11T08:54:18.342Z,0.54
2022-08-11T08:55:13.378Z,0.81
2022-08-11T08:56:12.153Z,0.81
2022-08-11T08:57:13.518Z,0.54
2022-08-11T08:58:15.793Z,0.81
2022-08-11T08:59:11.527Z,0.81
2022-08-11T09:00:22.931Z,0.56
2022-08-11T09:01:13.667Z,1.24
2022-08-11T09:02:16.611Z,0.83
2022-08-11T09:04:04.303Z,0.88
2022-08-11T09:04:17.515Z,0.89
2022-08-11T09:05:13.718Z,0.58
2022-08-11T09:06:15.454Z,0.58
2022-08-11T09:07:15.270Z,0.69
2022-08-11T09:08:13.990Z,0.69
2022-08-11T09:09:17.063Z,0.69
2022-08-11T09:10:14.125Z,1.15
2022-08-11T09:11:16.205Z,0.64
2022-08-11T09:12:12.265Z,0.64
2022-08-11T09:13:11.810Z,0.64
2022-08-11T09:14:16.975Z,0.58
2022-08-11T09:15:10.678Z,0.99
2022-08-11T09:16:13.088Z,0.54
2022-08-11T09:17:12.484Z,0.48
2022-08-11T09:18:17.536Z,0.48
2022-08-11T09:19:14.200Z,0.68
2022-08-11T09:20:14.823Z,0.68
2022-08-11T09:21:13.616Z,0.89
2022-08-11T09:22:15.537Z,0.59
2022-08-11T09:24:14.907Z,0.54
2022-08-11T09:24:26.892Z,0.54
2022-08-11T09:25:13.006Z,0.71
2022-08-11T09:26:14.667Z,0.56
2022-08-11T09:27:13.421Z,0.56
2022-08-11T09:28:20.516Z,1.11
2022-08-11T09:29:16.913Z,1.11
2022-08-11T09:30:12.637Z,0.84
2022-08-11T09:31:13.967Z,0.84
2022-08-11T09:32:14.669Z,1.21
2022-08-11T09:33:16.104Z,1.02
2022-08-11T09:34:12.858Z,1.02
2022-08-11T09:35:15.202Z,0.66
2022-08-11T09:36:15.136Z,0.51
2022-08-11T09:37:12.636Z,0.51
2022-08-11T09:38:14.169Z,0.51
2022-08-11T09:39:13.121Z,0.69
2022-08-11T09:40:16.883Z,0.58
2022-08-11T09:41:16.883Z,0.58
2022-08-11T09:42:23.282Z,1.3
2022-08-11T09:43:11.491Z,0.8
2022-08-11T09:44:13.875Z,0.67
2022-08-11T09:45:09.907Z,0.81
2022-08-11T09:46:13.788Z,0.49
2022-08-11T09:47:12.279Z,0.49
2022-08-11T09:48:16.540Z,1.14
2022-08-11T09:49:13.415Z,0.71
2022-08-11T09:50:11.726Z,0.74
2022-08-11T09:51:17.744Z,0.74
2022-08-11T09:52:11.731Z,0.6
2022-08-11T09:53:42.654Z,0.6
2022-08-11T09:54:11.728Z,0.76
2022-08-11T09:55:15.119Z,0.76
2022-08-11T09:56:09.523Z,1.06
2022-08-11T09:57:17.079Z,0.66
2022-08-11T09:58:44.845Z,0.88
2022-08-11T09:59:11.652Z,0.66
2022-08-11T10:00:15.821Z,0.66
2022-08-11T10:01:14.876Z,0.63
2022-08-11T10:02:13.821Z,1.68
2022-08-11T10:03:15.562Z,1.68
2022-08-11T10:04:17.205Z,0.99
2022-08-11T10:05:14.392Z,0.49
2022-08-11T10:06:13.196Z,0.49
2022-08-11T10:07:13.434Z,0.52
2022-08-11T10:08:12.637Z,0.52
2022-08-11T10:09:17.674Z,0.55
2022-08-11T10:10:09.779Z,0.55
2022-08-11T10:11:22.973Z,1.11
2022-08-11T10:12:14.667Z,1.11
2022-08-11T10:14:34.957Z,1.11
2022-08-11T10:14:36.935Z,0.74
2022-08-11T10:15:17.384Z,0.74
2022-08-11T10:16:18.633Z,0.74
2022-08-11T10:17:13.037Z,0.7
2022-08-11T10:18:16.352Z,0.7
2022-08-11T10:19:12.780Z,0.7
2022-08-11T10:20:15.581Z,0.58
2022-08-11T10:21:13.054Z,0.59
2022-08-11T10:22:11.422Z,0.59
2022-08-11T10:23:14.211Z,0.45
2022-08-11T10:24:12.587Z,0.55
2022-08-11T10:25:13.020Z,0.82
2022-08-11T10:26:10.261Z,0.65
2022-08-11T10:27:13.385Z,0.65
2022-08-11T10:28:49.922Z,0.65
2022-08-11T10:29:15.964Z,0.65
2022-08-11T10:30:16.736Z,0.92
2022-08-11T10:31:16.375Z,0.92
2022-08-11T10:32:15.506Z,0.53
2022-08-11T10:33:37.136Z,0.53
2022-08-11T10:34:14.538Z,1.3
2022-08-11T10:35:12.105Z,0.51
2022-08-11T10:36:18.909Z,0.79
2022-08-11T10:37:18.083Z,0.79
2022-08-11T10:38:12.959Z,0.76
2022-08-11T10:39:20.243Z,0.63
2022-08-11T10:40:13.872Z,0.68
2022-08-11T10:41:22.998Z,0.68
2022-08-11T10:43:12.187Z,0.4
2022-08-11T10:44:11.547Z,0.64
2022-08-11T10:45:13.533Z,0.64
2022-08-11T10:46:11.468Z,0.51
2022-08-11T10:47:14.573Z,0.51
2022-08-11T10:48:17.827Z,1.35
2022-08-11T10:49:10.878Z,1.35
2022-08-11T10:50:13.500Z,0.55
2022-08-11T10:51:13.883Z,1.08
2022-08-11T10:52:10.883Z,0.69
2022-08-11T10:53:14.968Z,1.1
2022-08-11T10:54:14.975Z,0.51
2022-08-11T10:55:14.644Z,1.02
2022-08-11T10:56:10.129Z,0.84
2022-08-11T10:57:16.588Z,0.77
2022-08-11T10:58:12.635Z,0.82
2022-08-11T10:59:13.236Z,0.57
2022-08-11T11:00:12.815Z,0.57
2022-08-11T11:01:13.899Z,0.57
2022-08-11T11:02:13.448Z,0.57
2022-08-11T11:03:25.960Z,0.95
2022-08-11T11:04:13.683Z,0.95
2022-08-11T11:05:11.820Z,0.81
2022-08-11T11:06:30.125Z,0.56
2022-08-11T11:07:13.690Z,0.56
2022-08-11T11:08:10.723Z,0.63
2022-08-11T11:09:12.802Z,0.63
2022-08-11T11:10:13.774Z,0.61
2022-08-11T11:11:20.554Z,0.66
2022-08-11T11:12:14.415Z,0.62
2022-08-11T11:13:15.491Z,0.62
2022-08-11T11:14:13.910Z,0.58
2022-08-11T11:15:35.295Z,0.58
2022-08-11T11:16:05.353Z,0.58
2022-08-11T11:17:14.022Z,0.73
2022-08-11T11:18:14.332Z,0.51
2022-08-11T11:19:13.765Z,0.51
2022-08-11T11:20:41.605Z,0.51
2022-08-11T11:21:12.208Z,0.5
2022-08-11T11:22:16.185Z,0.49
2022-08-11T11:23:11.813Z,0.49
2022-08-11T11:24:18.652Z,0.49
2022-08-11T11:25:18.771Z,0.45
2022-08-11T11:26:15.160Z,0.45
2022-08-11T11:27:05.283Z,0.45
2022-08-11T11:28:12.223Z,0.49
2022-08-11T11:29:15.404Z,0.59
2022-08-11T11:30:17.039Z,0.59
2022-08-11T11:31:17.890Z,0.59
2022-08-11T11:32:17.446Z,0.52
2022-08-11T11:33:21.856Z,0.52
2022-08-11T11:34:15.192Z,0.66
2022-08-11T11:35:11.848Z,0.7
2022-08-11T11:36:11.140Z,0.68
2022-08-11T11:37:11.796Z,0.85
2022-08-11T11:38:17.818Z,0.85
2022-08-11T11:39:06.429Z,0.85
2022-08-11T11:40:19.480Z,0.77
2022-08-11T11:41:16.502Z,0.58
2022-08-11T11:42:14.050Z,0.58
2022-08-11T11:43:13.139Z,0.78
2022-08-11T11:44:16.357Z,0.7
2022-08-11T11:45:24.891Z,0.7
2022-08-11T11:46:16.344Z,0.62
2022-08-11T11:47:10.707Z,0.62
2022-08-11T11:48:04.526Z,0.26
2022-08-11T11:50:11.297Z,0.59
2022-08-11T11:51:14.179Z,0.59
2022-08-11T11:52:14.017Z,0.76
2022-08-11T11:53:13.084Z,0.49
2022-08-11T11:54:13.921Z,0.49
2022-08-11T11:55:12.602Z,0.51
2022-08-11T11:56:11.887Z,0.78
2022-08-11T11:57:10.712Z,0.49
2022-08-11T11:58:21.083Z,0.65
2022-08-11T11:59:21.977Z,0.42
2022-08-11T12:00:12.748Z,0.42
2022-08-11T12:01:11.898Z,0.35
2022-08-11T12:02:14.786Z,0.72
2022-08-11T12:03:16.376Z,0.72
2022-08-11T12:04:13.131Z,0.54
2022-08-11T12:05:13.225Z,0.54
2022-08-11T12:06:12.360Z,0.61
2022-08-11T12:07:18.773Z,0.34
2022-08-11T12:08:14.862Z,0.34
2022-08-11T12:09:14.254Z,0.44
2022-08-11T12:10:15.352Z,0.44
2022-08-11T12:11:15.618Z,0.44
2022-08-11T12:12:15.118Z,0.39
2022-08-11T12:13:12.942Z,0.52
2022-08-11T12:14:16.368Z,0.91
2022-08-11T12:15:12.018Z,0.46
2022-08-11T12:16:36.917Z,0.72
2022-08-11T12:17:17.903Z,0.82
2022-08-11T12:18:12.009Z,1.45
2022-08-11T12:19:15.645Z,1.45
2022-08-11T12:20:35.452Z,0.46
2022-08-11T12:21:12.485Z,0.62
2022-08-11T12:22:14.692Z,0.35
2022-08-11T12:23:16.740Z,0.35
2022-08-11T12:24:14.527Z,0.51
2022-08-11T12:25:11.796Z,0.98
2022-08-11T12:26:28.483Z,0.71
2022-08-11T12:27:19.088Z,0.71
2022-08-11T12:28:15.001Z,0.62
2022-08-11T12:29:14.192Z,0.84
2022-08-11T12:30:14.478Z,0.75
2022-08-11T12:31:11.990Z,0.52
2022-08-11T12:32:16.283Z,0.52
2022-08-11T12:33:05.751Z,0.59
2022-08-11T12:34:10.473Z,0.58
2022-08-11T12:35:15.009Z,0.58
2022-08-11T12:36:13.542Z,0.58
2022-08-11T12:37:09.201Z,0.35
2022-08-11T12:38:12.924Z,0.49
2022-08-11T12:40:37.807Z,0.49
2022-08-11T12:40:50.182Z,0.48
2022-08-11T12:41:18.639Z,1.39
2022-08-11T12:42:10.085Z,1.39
2022-08-11T12:43:40.533Z,0.65
2022-08-11T12:44:04.730Z,0.65
2022-08-11T12:45:24.761Z,0.35
2022-08-11T12:46:15.298Z,0.69
2022-08-11T12:47:14.823Z,0.69
2022-08-11T12:49:02.248Z,0.4
2022-08-11T12:49:18.734Z,0.57
2022-08-11T12:50:25.109Z,0.57
2022-08-11T12:51:12.799Z,0.72
2022-08-11T12:52:17.996Z,1.01
2022-08-11T12:53:12.290Z,0.75
2022-08-11T12:54:18.009Z,0.47
2022-08-11T12:55:15.759Z,0.47
2022-08-11T12:56:14.995Z,0.47
2022-08-11T12:57:14.323Z,1.02
2022-08-11T12:58:17.701Z,0.48
2022-08-11T12:59:14.704Z,0.42
2022-08-11T13:00:12.428Z,0.42
2022-08-11T13:01:14.974Z,0.42
2022-08-11T13:02:13.846Z,0.46
2022-08-11T13:03:11.290Z,0.32
2022-08-11T13:04:15.452Z,0.32
2022-08-11T13:05:16.458Z,0.32
2022-08-11T13:06:13.252Z,0.47
2022-08-11T13:07:12.805Z,0.48
2022-08-11T13:08:11.325Z,0.48
2022-08-11T13:09:12.598Z,0.48
2022-08-11T13:10:16.805Z,0.48
2022-08-11T13:11:06.221Z,0.55
2022-08-11T13:12:15.885Z,0.49
2022-08-11T13:13:57.992Z,0.49
2022-08-11T13:14:16.746Z,0.49
2022-08-11T13:15:14.663Z,0.75
2022-08-11T13:16:15.718Z,0.75
2022-08-11T13:17:15.179Z,0.68
2022-08-11T13:18:12.385Z,0.68
2022-08-11T13:19:12.813Z,0.72
2022-08-11T13:20:13.896Z,0.57
2022-08-11T13:21:11.143Z,0.82
2022-08-11T13:22:07.575Z,0.82
2022-08-11T13:23:09.918Z,0.71
2022-08-11T13:24:14.932Z,0.49